createdAt,value
2018-12-22T06:23:13.113Z,10.10
2018-12-22T06:25:40.550Z,10.20
2018-12-22T06:28:08.011Z,10.00
2018-12-22T06:30:35.436Z,9.90
2018-12-22T06:33:02.860Z,9.80
2018-12-22T06:35:30.376Z,9.70
2018-12-22T06:37:57.800Z,9.70
2018-12-22T06:40:25.241Z,9.60
2018-12-22T06:42:52.632Z,9.50
2018-12-22T06:45:20.060Z,9.40
2018-12-22T06:47:47.486Z,9.40
2018-12-22T06:50:14.924Z,9.30
2018-12-22T06:52:42.458Z,9.20
2018-12-22T06:55:09.904Z,9.20
2018-12-22T06:57:37.384Z,9.10
2018-12-22T07:00:07.919Z,9.10
2018-12-22T07:02:35.367Z,9.10
2018-12-22T07:05:03.503Z,9.10
2018-12-22T07:07:31.111Z,9.10
2018-12-22T07:09:58.530Z,9.20
2018-12-22T07:12:25.970Z,9.10
2018-12-22T07:14:53.390Z,9.20
2018-12-22T07:17:20.850Z,9.30
2018-12-22T07:19:48.263Z,9.20
2018-12-22T07:22:16.071Z,9.30
2018-12-22T07:24:43.534Z,9.30
2018-12-22T07:27:10.959Z,9.50
2018-12-22T07:29:38.407Z,9.50
2018-12-22T07:32:05.890Z,9.50
2018-12-22T07:34:33.434Z,9.50
2018-12-22T07:37:00.914Z,9.50
2018-12-22T07:39:28.348Z,9.40
2018-12-22T07:41:55.782Z,9.40
2018-12-22T07:44:23.207Z,9.30
2018-12-22T07:46:50.626Z,9.20
2018-12-22T07:49:18.051Z,9.10
2018-12-22T07:51:45.554Z,8.90
2018-12-22T07:54:12.997Z,8.70
2018-12-22T07:56:39.993Z,8.60
2018-12-22T07:59:07.018Z,8.50
2018-12-22T08:01:33.997Z,8.50
2018-12-22T08:04:00.967Z,8.40
2018-12-22T08:06:27.952Z,8.30
2018-12-22T08:08:55.000Z,8.30
2018-12-22T08:11:22.020Z,8.40
2018-12-22T08:13:49.443Z,8.40
2018-12-22T08:16:16.416Z,8.50
2018-12-22T08:18:43.919Z,8.60
2018-12-22T08:21:10.892Z,8.70
2018-12-22T08:23:37.867Z,8.70
2018-12-22T08:26:04.843Z,8.80
2018-12-22T08:28:31.819Z,9.10
2018-12-22T08:30:58.803Z,9.30
2018-12-22T08:33:25.778Z,9.40
